Time;durP1;ratioP1;P1;durP2;ratioP2;P2;SDS_P1;SDS_P2;PMS_P1;PMS_P2;Temp;Humidity;BMP_temperature;BMP_pressure;BME280_temperature;BME280_humidity;BME280_pressure;Samples;Min_cycle;Max_cycle;Signal;HPM_P1;HPM_P2
2022/11/17 00:01:09;;;;;;;25.00;16.80;;;;;;;6.81;100.00;95828.90;107850;1263;70606;-74
2022/11/17 00:03:38;;;;;;;27.10;18.10;;;;;;;6.82;100.00;95826.22;107628;1267;69505;-74
2022/11/17 00:06:09;;;;;;;30.50;17.50;;;;;;;6.82;100.00;95823.95;107649;1267;69244;-74
2022/11/17 00:08:39;;;;;;;27.00;17.40;;;;;;;6.84;100.00;95818.80;107652;1267;59691;-73
2022/11/17 00:11:09;;;;;;;27.20;17.10;;;;;;;6.85;100.00;95812.65;107692;1267;59768;-75
2022/11/17 00:16:26;;;;;;;26.30;15.30;;;;;;;6.87;100.00;95800.73;107665;1263;68444;-75
2022/11/17 00:21:43;;;;;;;26.20;15.30;;;;;;;6.87;100.00;95798.23;107812;1267;59699;-75
2022/11/17 00:24:15;;;;;;;25.50;16.40;;;;;;;6.88;100.00;95796.96;108095;1267;59766;-75
2022/11/17 00:27:03;;;;;;;25.60;15.70;;;;;;;6.87;100.00;95794.97;107797;1267;71519;-76
2022/11/17 00:29:32;;;;;;;24.10;14.20;;;;;;;6.85;100.00;95797.41;107669;1267;68422;-75
2022/11/17 00:35:05;;;;;;;22.30;13.60;;;;;;;6.84;100.00;95789.54;107886;1267;59775;-75
2022/11/17 00:37:37;;;;;;;24.50;14.30;;;;;;;6.83;100.00;95786.80;107789;1265;59691;-75
2022/11/17 00:40:06;;;;;;;23.60;14.40;;;;;;;6.83;100.00;95781.41;107865;1262;70831;-75
2022/11/17 00:42:40;;;;;;;23.40;14.50;;;;;;;6.84;100.00;95779.80;107896;1262;69289;-75
2022/11/17 00:45:10;;;;;;;22.30;13.80;;;;;;;6.85;100.00;95784.58;107755;1262;69137;-75
2022/11/17 00:47:41;;;;;;;22.60;14.00;;;;;;;6.85;100.00;95787.02;107699;1263;59738;-75
2022/11/17 00:50:10;;;;;;;26.90;15.40;;;;;;;6.84;100.00;95782.38;107744;1267;59705;-75
2022/11/17 00:52:39;;;;;;;24.00;14.60;;;;;;;6.83;100.00;95775.73;107837;1267;71038;-75
2022/11/17 00:55:09;;;;;;;22.90;12.90;;;;;;;6.83;100.00;95770.02;107784;1267;69070;-75
2022/11/17 00:57:38;;;;;;;25.10;15.20;;;;;;;6.83;100.00;95762.43;107845;1263;69234;-75
2022/11/17 01:00:09;;;;;;;23.10;14.00;;;;;;;6.83;100.00;95764.48;107775;1267;59724;-75
2022/11/17 01:02:39;;;;;;;21.10;13.40;;;;;;;6.82;100.00;95766.80;107727;1268;59713;-75
2022/11/17 01:05:09;;;;;;;;;;;;;;;6.82;100.00;95772.16;107888;1267;69984;-75
2022/11/17 01:07:38;;;;;;;21.20;11.80;;;;;;;6.81;100.00;95775.20;107870;1267;69224;-75
2022/11/17 01:10:08;;;;;;;21.50;14.30;;;;;;;6.80;100.00;95767.02;107704;1263;69748;-75
2022/11/17 01:12:37;;;;;;;24.00;14.20;;;;;;;6.80;100.00;95760.27;107838;1267;59711;-75
2022/11/17 01:15:07;;;;;;;24.00;17.10;;;;;;;6.80;100.00;95757.16;107647;1267;59681;-75
2022/11/17 01:17:36;;;;;;;32.60;21.30;;;;;;;6.79;100.00;95759.84;107799;1263;71490;-75
2022/11/17 01:20:07;;;;;;;44.70;30.50;;;;;;;6.74;100.00;95759.52;107748;1269;68456;-75
2022/11/17 01:22:36;;;;;;;47.60;32.50;;;;;;;6.68;100.00;95756.92;107763;1266;68469;-75
2022/11/17 01:25:07;;;;;;;46.70;32.70;;;;;;;6.56;100.00;95748.57;107622;1269;59691;-75
2022/11/17 01:27:37;;;;;;;40.60;31.60;;;;;;;6.46;100.00;95747.30;107645;1266;59782;-75
2022/11/17 01:30:07;;;;;;;38.50;28.50;;;;;;;6.38;100.00;95746.95;107686;1266;71371;-75
2022/11/17 01:32:36;;;;;;;45.80;33.10;;;;;;;6.33;100.00;95746.85;107832;1266;69026;-74
2022/11/17 01:35:06;;;;;;;48.70;34.10;;;;;;;6.23;100.00;95744.22;107847;1269;69890;-75
2022/11/17 01:37:36;;;;;;;44.10;31.30;;;;;;;6.18;100.00;95744.94;107851;1268;59736;-75
2022/11/17 01:40:08;;;;;;;47.20;32.60;;;;;;;6.10;100.00;95744.39;107857;1268;59707;-76
2022/11/17 01:42:38;;;;;;;46.10;32.20;;;;;;;6.01;100.00;95746.88;107776;1269;71409;-75
2022/11/17 01:45:18;;;;;;;51.30;36.00;;;;;;;5.95;100.00;95745.09;107731;1263;69145;-75
2022/11/17 01:48:01;;;;;;;46.90;33.70;;;;;;;5.91;100.00;95736.98;107770;1268;69216;-75
2022/11/17 01:50:36;;;;;;;49.10;35.50;;;;;;;5.88;100.00;95736.31;107782;1268;59757;-75
2022/11/17 01:53:11;;;;;;;48.70;33.00;;;;;;;5.85;100.00;95721.82;107789;1267;59763;-75
2022/11/17 01:55:48;;;;;;;46.30;32.30;;;;;;;5.85;100.00;95708.00;107817;1269;71224;-75
2022/11/17 01:58:23;;;;;;;45.70;30.90;;;;;;;5.85;100.00;95701.89;107602;1269;68295;-74
2022/11/17 02:00:55;;;;;;;45.10;32.50;;;;;;;5.89;100.00;95708.06;107741;1268;69234;-75
2022/11/17 02:03:26;;;;;;;50.30;33.90;;;;;;;5.91;100.00;95705.96;107751;1268;59763;-75
2022/11/17 02:06:18;;;;;;;42.70;30.80;;;;;;;5.93;100.00;95701.02;107789;1266;59792;-75
2022/11/17 02:08:50;;;;;;;44.10;30.80;;;;;;;5.95;100.00;95698.75;107605;1268;71697;-73
2022/11/17 02:11:34;;;;;;;41.80;29.40;;;;;;;5.99;100.00;95695.70;107656;1269;68420;-74
2022/11/17 02:14:07;;;;;;;38.00;27.30;;;;;;;6.02;100.00;95694.03;107643;1265;67566;-74
2022/11/17 02:16:37;;;;;;;35.30;27.90;;;;;;;6.05;100.00;95688.94;107697;1263;59665;-74
2022/11/17 02:19:14;;;;;;;32.90;21.20;;;;;;;6.09;100.00;95683.95;107675;1269;59700;-73
2022/11/17 02:22:05;;;;;;;36.20;26.80;;;;;;;6.12;100.00;95677.99;107722;1267;71263;-74
2022/11/17 02:24:41;;;;;;;39.20;27.90;;;;;;;6.16;100.00;95674.60;107718;1267;68404;-74
2022/11/17 02:27:53;;;;;;;37.40;26.40;;;;;;;6.18;100.00;95669.42;107644;1267;69918;-74
2022/11/17 02:30:28;;;;;;;34.90;25.50;;;;;;;6.20;100.00;95666.62;107502;1267;59731;-74
2022/11/17 02:33:30;;;;;;;37.00;25.30;;;;;;;6.22;100.00;95662.13;107725;1262;59727;-74
2022/11/17 02:36:42;;;;;;;38.00;28.10;;;;;;;6.24;100.00;95660.43;107605;1267;70613;-74
2022/11/17 02:39:22;;;;;;;34.90;26.10;;;;;;;6.26;100.00;95661.91;107585;1267;69633;-74
2022/11/17 02:42:16;;;;;;;37.20;25.70;;;;;;;6.29;100.00;95660.67;107669;1267;69340;-74
2022/11/17 02:44:57;;;;;;;37.10;25.60;;;;;;;6.32;100.00;95661.45;107647;1262;59780;-74
2022/11/17 02:47:31;;;;;;;40.70;29.50;;;;;;;6.34;100.00;95662.53;107727;1262;59831;-74
2022/11/17 02:50:07;;;;;;;38.60;26.90;;;;;;;6.34;100.00;95656.27;107689;1266;71257;-74
2022/11/17 02:52:37;;;;;;;39.30;27.20;;;;;;;6.34;100.00;95650.03;107614;1270;69176;-74
2022/11/17 02:55:08;;;;;;;;;;;;;;;6.36;100.00;95645.19;107654;1267;69297;-74
2022/11/17 02:57:40;;;;;;;39.50;27.80;;;;;;;6.36;100.00;95644.13;107681;1267;59759;-74
2022/11/17 03:00:14;;;;;;;40.60;27.20;;;;;;;6.36;100.00;95643.95;107678;1263;59784;-74
2022/11/17 03:03:24;;;;;;;37.60;24.40;;;;;;;6.35;100.00;95646.13;107696;1265;71372;-75
2022/11/17 03:06:22;;;;;;;36.10;25.80;;;;;;;6.35;100.00;95644.61;107920;1265;68426;-74
2022/11/17 03:09:18;;;;;;;35.20;25.10;;;;;;;6.36;100.00;95640.38;107807;1263;68504;-73
2022/11/17 03:11:58;;;;;;;32.30;23.80;;;;;;;6.37;100.00;95638.86;107696;1267;59694;-75
2022/11/17 03:14:54;;;;;;;31.30;20.90;;;;;;;6.37;100.00;95644.21;107742;1265;59785;-74
2022/11/17 03:17:56;;;;;;;38.10;29.20;;;;;;;6.36;100.00;95640.52;107524;1268;71448;-74
2022/11/17 03:20:58;;;;;;;42.80;29.70;;;;;;;6.31;100.00;95641.85;107496;1267;69076;-73
2022/11/17 03:23:38;;;;;;;37.80;24.90;;;;;;;6.25;100.00;95630.73;107600;1267;68035;-73
2022/11/17 03:26:16;;;;;;;43.20;29.90;;;;;;;6.25;100.00;95624.88;107770;1266;59728;-73
2022/11/17 03:28:46;;;;;;;38.40;26.10;;;;;;;6.27;100.00;95624.21;107804;1263;59756;-74
2022/11/17 03:31:19;;;;;;;35.60;25.20;;;;;;;6.27;100.00;95616.67;107731;1267;70601;-73
2022/11/17 03:33:49;;;;;;;38.60;26.90;;;;;;;6.30;100.00;95607.85;107754;1267;68144;-73
2022/11/17 03:36:24;;;;;;;39.80;26.20;;;;;;;6.32;100.00;95596.75;107728;1267;69283;-73
2022/11/17 03:39:02;;;;;;;42.70;26.40;;;;;;;6.34;100.00;95591.08;107709;1264;59775;-73
2022/11/17 03:41:38;;;;;;;31.90;22.50;;;;;;;6.35;100.00;95583.99;107753;1267;59748;-73
2022/11/17 03:44:09;;;;;;;32.60;21.60;;;;;;;6.37;100.00;95582.81;107632;1265;70346;-73
2022/11/17 03:46:43;;;;;;;33.20;19.70;;;;;;;6.39;100.00;95576.45;107634;1267;69161;-73
2022/11/17 03:49:39;;;;;;;29.00;17.80;;;;;;;6.41;100.00;95575.44;107624;1265;69411;-74
2022/11/17 03:52:08;;;;;;;24.30;16.20;;;;;;;6.44;100.00;95576.01;107658;1267;59794;-73
2022/11/17 03:54:39;;;;;;;24.60;15.50;;;;;;;6.48;100.00;95573.77;107662;1267;59652;-75
2022/11/17 03:57:21;;;;;;;21.80;13.60;;;;;;;6.51;100.00;95571.95;107613;1267;71160;-74
2022/11/17 04:00:03;;;;;;;24.30;15.10;;;;;;;6.56;100.00;95575.31;107659;1267;69813;-74
2022/11/17 04:02:45;;;;;;;24.30;15.00;;;;;;;6.60;100.00;95572.86;107606;1267;69252;-74
2022/11/17 04:05:16;;;;;;;19.60;12.70;;;;;;;6.63;100.00;95572.30;107638;1265;59736;-73
2022/11/17 04:07:46;;;;;;;19.20;12.50;;;;;;;6.67;100.00;95574.60;107622;1267;59703;-74
2022/11/17 04:10:21;;;;;;;22.10;15.50;;;;;;;6.69;100.00;95571.30;107679;1267;71313;-75
2022/11/17 04:15:57;;;;;;;32.60;20.00;;;;;;;6.71;100.00;95571.27;107635;1267;69902;-75
2022/11/17 04:18:27;;;;;;;106.00;29.90;;;;;;;6.67;100.00;95566.40;107652;1263;59730;-75
2022/11/17 04:20:56;;;;;;;57.00;32.70;;;;;;;6.60;100.00;95570.84;107649;1265;59742;-75
2022/11/17 04:23:26;;;;;;;52.90;32.20;;;;;;;6.48;100.00;95573.23;107669;1263;71588;-72
2022/11/17 04:28:47;;;;;;;307.10;49.50;;;;;;;6.29;100.00;95580.55;107648;1266;69916;-73
2022/11/17 04:31:42;;;;;;;281.60;47.90;;;;;;;6.23;100.00;95579.02;107613;1267;59771;-75
2022/11/17 04:34:11;;;;;;;45.10;25.50;;;;;;;6.19;100.00;95575.02;107653;1267;59704;-72
2022/11/17 04:36:44;;;;;;;56.30;27.70;;;;;;;6.18;100.00;95570.96;107638;1267;71627;-74
2022/11/17 04:39:15;;;;;;;48.70;27.30;;;;;;;6.19;100.00;95569.46;107731;1265;69233;-73
2022/11/17 04:41:53;;;;;;;43.00;26.00;;;;;;;6.20;100.00;95566.45;107749;1267;69320;-73
2022/11/17 04:44:25;;;;;;;36.90;23.50;;;;;;;6.22;100.00;95562.48;107764;1267;59685;-73
2022/11/17 04:46:55;;;;;;;29.20;19.60;;;;;;;6.24;100.00;95562.01;107665;1263;59743;-73
2022/11/17 04:49:25;;;;;;;36.10;23.80;;;;;;;6.26;100.00;95565.22;107634;1268;71055;-74
2022/11/17 04:51:54;;;;;;;31.50;21.90;;;;;;;6.28;100.00;95556.92;107809;1265;68359;-74
2022/11/17 04:54:24;;;;;;;29.40;17.00;;;;;;;6.31;100.00;95551.14;107769;1267;69287;-74
2022/11/17 04:56:54;;;;;;;25.70;16.10;;;;;;;6.35;100.00;95552.71;107766;1263;59703;-74
2022/11/17 04:59:23;;;;;;;31.80;18.50;;;;;;;6.39;100.00;95554.45;107739;1267;59738;-74
2022/11/17 05:01:52;;;;;;;28.10;19.50;;;;;;;6.42;100.00;95553.34;107656;1267;70577;-74
2022/11/17 05:07:10;;;;;;;29.50;17.90;;;;;;;6.48;100.00;95553.88;107647;1267;69948;-74
2022/11/17 05:09:39;;;;;;;23.50;15.80;;;;;;;6.50;100.00;95558.85;107627;1267;59736;-74
2022/11/17 05:14:56;;;;;;;21.90;13.70;;;;;;;6.58;100.00;95559.38;107654;1267;71315;-74
2022/11/17 05:17:25;;;;;;;23.00;14.10;;;;;;;6.61;100.00;95556.48;107757;1267;68349;-74
2022/11/17 05:19:55;;;;;;;21.20;13.30;;;;;;;6.65;100.00;95560.66;107794;1267;69261;-74
2022/11/17 05:25:11;;;;;;;20.60;11.00;;;;;;;6.71;100.00;95560.36;107785;1267;59697;-74
2022/11/17 05:27:40;;;;;;;18.50;12.10;;;;;;;6.74;100.00;95555.27;107805;1267;72021;-74
2022/11/17 05:30:10;;;;;;;19.80;12.40;;;;;;;6.77;100.00;95557.95;107810;1263;68446;-74
2022/11/17 05:32:39;;;;;;;;;;;;;;;6.79;100.00;95553.58;107679;1268;70342;-74
2022/11/17 05:35:08;;;;;;;19.50;11.90;;;;;;;6.80;100.00;95552.45;107738;1267;59844;-73
2022/11/17 05:37:37;;;;;;;15.70;11.00;;;;;;;6.83;100.00;95553.10;107769;1267;59662;-74
2022/11/17 05:40:07;;;;;;;18.20;11.50;;;;;;;6.85;100.00;95558.80;107764;1267;71355;-73
2022/11/17 05:42:36;;;;;;;;;;;;;;;6.85;100.00;95566.08;107794;1265;69672;-73
2022/11/17 05:45:06;;;;;;;35.40;20.70;;;;;;;6.84;100.00;95562.14;107802;1267;68853;-74
2022/11/17 05:47:35;;;;;;;27.50;16.80;;;;;;;6.84;100.00;95561.30;107785;1263;59716;-73
2022/11/17 05:50:06;;;;;;;19.90;12.90;;;;;;;6.84;100.00;95560.41;107755;1267;59771;-73
2022/11/17 05:52:34;;;;;;;19.00;11.40;;;;;;;6.86;100.00;95558.52;107760;1262;69789;-73
2022/11/17 05:55:04;;;;;;;19.60;12.50;;;;;;;6.88;100.00;95557.46;107656;1265;69630;-73
2022/11/17 05:57:32;;;;;;;21.00;13.30;;;;;;;6.92;100.00;95557.70;107706;1266;68328;-74
2022/11/17 06:00:03;;;;;;;23.40;14.00;;;;;;;6.94;100.00;95556.32;107755;1267;59747;-74
2022/11/17 06:02:56;;;;;;;21.30;13.50;;;;;;;6.95;100.00;95560.19;107934;1267;59692;-73
2022/11/17 06:05:25;;;;;;;23.60;15.20;;;;;;;6.95;100.00;95557.52;107755;1267;71460;-75
2022/11/17 06:07:56;;;;;;;22.60;13.70;;;;;;;6.97;100.00;95556.56;107740;1263;68597;-74
2022/11/17 06:10:26;;;;;;;18.90;11.30;;;;;;;7.00;100.00;95554.58;107795;1266;68789;-73
2022/11/17 06:12:54;;;;;;;17.50;10.90;;;;;;;7.02;100.00;95550.18;107774;1263;59730;-75
2022/11/17 06:15:23;;;;;;;17.80;12.70;;;;;;;7.04;100.00;95550.67;107764;1263;59721;-73
2022/11/17 06:18:02;;;;;;;21.10;13.60;;;;;;;7.06;100.00;95544.11;107772;1259;70561;-72
2022/11/17 06:20:37;;;;;;;20.70;13.50;;;;;;;7.08;100.00;95539.26;107779;1263;69183;-74
2022/11/17 06:23:07;;;;;;;16.20;10.80;;;;;;;7.09;100.00;95542.77;107769;1263;69240;-73
2022/11/17 06:25:38;;;;;;;16.50;11.50;;;;;;;7.11;100.00;95540.86;107754;1267;59724;-73
2022/11/17 06:28:11;;;;;;;20.90;12.40;;;;;;;7.13;100.00;95540.87;107781;1267;59766;-73
2022/11/17 06:30:41;;;;;;;16.50;11.50;;;;;;;7.15;100.00;95539.66;107791;1267;72030;-73
2022/11/17 06:33:13;;;;;;;17.40;12.20;;;;;;;7.17;100.00;95536.09;107839;1267;68370;-70
2022/11/17 06:35:45;;;;;;;17.70;11.30;;;;;;;7.20;100.00;95538.95;107744;1263;68444;-70
2022/11/17 06:38:13;;;;;;;17.10;11.30;;;;;;;7.21;100.00;95539.36;107787;1263;59763;-70
2022/11/17 06:40:42;;;;;;;17.10;11.30;;;;;;;7.22;100.00;95537.35;107722;1267;59733;-70
2022/11/17 06:43:11;;;;;;;16.30;10.00;;;;;;;7.24;100.00;95536.82;107825;1267;71234;-70
2022/11/17 06:45:42;;;;;;;18.80;12.60;;;;;;;7.26;100.00;95539.64;107773;1267;69181;-71
2022/11/17 06:48:14;;;;;;;18.40;11.50;;;;;;;7.27;100.00;95542.80;107872;1267;68302;-71
2022/11/17 06:50:43;;;;;;;17.40;12.10;;;;;;;7.29;100.00;95541.23;107765;1263;59813;-70
2022/11/17 06:53:12;;;;;;;18.50;12.30;;;;;;;7.29;100.00;95536.58;107848;1262;59735;-70
2022/11/17 06:55:41;;;;;;;16.90;11.10;;;;;;;7.31;100.00;95537.27;107896;1264;70746;-71
2022/11/17 06:58:12;;;;;;;18.50;11.00;;;;;;;7.33;100.00;95535.16;107867;1267;68492;-71
2022/11/17 07:00:41;;;;;;;19.50;12.50;;;;;;;7.35;100.00;95532.02;107742;1263;69317;-71
2022/11/17 07:03:11;;;;;;;17.60;11.10;;;;;;;7.37;100.00;95529.73;107928;1266;59704;-71
2022/11/17 07:05:40;;;;;;;17.90;11.80;;;;;;;7.39;100.00;95533.92;107891;1263;59693;-71
2022/11/17 07:08:09;;;;;;;16.30;10.40;;;;;;;7.40;100.00;95529.80;107669;1263;70674;-71
2022/11/17 07:10:37;;;;;;;16.30;10.30;;;;;;;7.44;100.00;95533.48;107781;1263;68695;-71
2022/11/17 07:13:10;;;;;;;18.50;11.60;;;;;;;7.47;100.00;95529.59;107809;1266;69303;-71
2022/11/17 07:15:38;;;;;;;17.00;10.80;;;;;;;7.49;100.00;95530.58;107371;1267;631514;-71
2022/11/17 07:18:07;;;;;;;17.00;12.10;;;;;;;7.51;100.00;95532.46;107873;1262;59773;-71
2022/11/17 07:20:36;;;;;;;17.90;10.40;;;;;;;7.54;100.00;95528.27;107755;1267;71230;-71
2022/11/17 07:23:06;;;;;;;13.80;9.80;;;;;;;7.56;100.00;95531.01;107894;1267;69196;-71
2022/11/17 07:25:34;;;;;;;17.10;11.90;;;;;;;7.58;100.00;95529.56;107888;1266;68299;-71
2022/11/17 07:28:03;;;;;;;15.40;11.00;;;;;;;7.59;100.00;95529.64;107730;1267;59706;-71
2022/11/17 07:30:33;;;;;;;18.90;13.60;;;;;;;7.59;100.00;95528.44;107846;1267;59766;-70
2022/11/17 07:33:03;;;;;;;18.90;12.80;;;;;;;7.59;100.00;95529.48;107893;1263;71420;-71
2022/11/17 07:35:34;;;;;;;28.60;19.30;;;;;;;7.59;100.00;95532.11;107778;1267;69465;-71
2022/11/17 07:38:03;;;;;;;23.10;15.20;;;;;;;7.56;100.00;95532.54;107912;1267;69750;-71
2022/11/17 07:40:32;;;;;;;20.20;14.50;;;;;;;7.57;100.00;95531.55;107679;1266;59785;-71
2022/11/17 07:43:01;;;;;;;25.30;17.00;;;;;;;7.54;100.00;95531.70;107894;1259;59693;-71
2022/11/17 07:45:30;;;;;;;42.50;26.40;;;;;;;7.55;100.00;95532.33;107850;1263;71345;-71
2022/11/17 07:48:04;;;;;;;30.70;19.30;;;;;;;7.55;100.00;95535.39;107915;1265;67573;-71
2022/11/17 07:50:35;;;;;;;27.20;17.20;;;;;;;7.56;100.00;95536.72;107938;1267;69312;-71
2022/11/17 07:53:04;;;;;;;22.90;15.90;;;;;;;7.57;100.00;95537.10;107848;1267;59720;-71
2022/11/17 07:55:33;;;;;;;30.80;19.30;;;;;;;7.58;100.00;95538.41;107819;1267;59729;-70
2022/11/17 07:58:02;;;;;;;25.90;17.20;;;;;;;7.59;100.00;95540.59;107864;1267;70789;-70
2022/11/17 08:00:32;;;;;;;23.40;16.10;;;;;;;7.62;100.00;95541.73;107914;1263;68586;-71
2022/11/17 08:03:03;;;;;;;24.00;16.10;;;;;;;7.61;100.00;95548.05;107904;1265;69636;-71
2022/11/17 08:05:37;;;;;;;22.70;14.10;;;;;;;7.61;100.00;95550.45;107898;1263;59757;-71
2022/11/17 08:08:12;;;;;;;21.50;15.80;;;;;;;7.60;100.00;95552.29;107788;1267;59684;-71
2022/11/17 08:10:41;;;;;;;22.20;15.40;;;;;;;7.59;100.00;95556.20;107804;1263;71250;-71
2022/11/17 08:13:11;;;;;;;24.30;14.80;;;;;;;7.62;100.00;95557.30;107788;1263;68274;-71
2022/11/17 08:15:40;;;;;;;25.30;16.90;;;;;;;7.63;100.00;95559.80;107778;1266;69655;-71
2022/11/17 08:18:09;;;;;;;26.50;17.00;;;;;;;7.63;100.00;95562.95;107797;1267;59749;-71
2022/11/17 08:20:39;;;;;;;24.70;16.40;;;;;;;7.67;100.00;95565.19;107779;1266;59720;-71
2022/11/17 08:23:08;;;;;;;23.90;17.40;;;;;;;7.72;100.00;95565.84;107846;1265;71850;-71
2022/11/17 08:25:37;;;;;;;27.60;18.80;;;;;;;7.74;100.00;95569.48;107937;1263;68272;-71
2022/11/17 08:28:05;;;;;;;27.10;16.20;;;;;;;7.74;100.00;95575.70;107790;1263;70171;-71
2022/11/17 08:30:34;;;;;;;25.70;17.70;;;;;;;7.75;100.00;95566.91;107589;1267;59689;-71
2022/11/17 08:33:04;;;;;;;32.00;23.80;;;;;;;7.73;100.00;95566.77;107795;1263;59748;-71
2022/11/17 08:35:32;;;;;;;29.00;18.50;;;;;;;7.75;100.00;95571.98;107709;1266;72471;-70
2022/11/17 08:38:05;;;;;;;28.30;19.10;;;;;;;7.75;100.00;95577.45;107723;1265;68209;-71
2022/11/17 08:40:34;;;;;;;53.10;33.20;;;;;;;7.74;100.00;95576.84;107909;1265;68267;-71
2022/11/17 08:43:05;;;;;;;43.40;26.60;;;;;;;7.75;100.00;95585.81;107604;1266;59732;-71
2022/11/17 08:45:34;;;;;;;45.10;29.50;;;;;;;7.70;100.00;95589.69;107628;1265;59655;-71
2022/11/17 08:48:03;;;;;;;35.30;24.00;;;;;;;7.67;100.00;95592.26;107908;1263;72078;-70
2022/11/17 08:50:31;;;;;;;31.50;20.30;;;;;;;7.62;100.00;95594.26;107814;1267;69077;-70
2022/11/17 08:53:00;;;;;;;30.80;21.20;;;;;;;7.62;100.00;95598.77;107615;1267;68364;-71
2022/11/17 08:55:29;;;;;;;27.20;19.50;;;;;;;7.61;100.00;95605.98;107897;1267;59754;-71
2022/11/17 08:57:58;;;;;;;28.90;21.30;;;;;;;7.59;100.00;95607.02;107988;1266;59820;-71
2022/11/17 09:00:27;;;;;;;27.30;19.30;;;;;;;7.60;100.00;95615.20;107896;1267;70728;-71
2022/11/17 09:02:55;;;;;;;31.20;21.30;;;;;;;7.57;100.00;95615.64;107902;1267;68335;-71
2022/11/17 09:05:24;;;;;;;27.60;19.30;;;;;;;7.58;100.00;95614.57;107874;1267;69815;-71
2022/11/17 09:07:53;;;;;;;35.10;24.30;;;;;;;7.57;100.00;95612.51;107826;1258;59673;-71
2022/11/17 09:10:22;;;;;;;35.50;23.40;;;;;;;7.55;100.00;95614.65;107849;1266;59820;-71
2022/11/17 09:12:54;;;;;;;36.90;23.90;;;;;;;7.51;100.00;95618.42;107839;1267;71606;-71
2022/11/17 09:15:23;;;;;;;35.70;23.60;;;;;;;7.51;100.00;95613.27;107881;1265;69178;-71
2022/11/17 09:17:52;;;;;;;32.30;22.10;;;;;;;7.55;100.00;95609.08;107742;1267;69219;-71
2022/11/17 09:20:21;;;;;;;40.50;27.60;;;;;;;7.57;100.00;95608.73;107741;1265;59730;-71
2022/11/17 09:22:50;;;;;;;38.10;27.20;;;;;;;7.59;100.00;95607.64;107771;1265;59758;-71
2022/11/17 09:25:18;;;;;;;33.50;23.40;;;;;;;7.65;100.00;95608.88;107791;1266;71796;-71
2022/11/17 09:27:49;;;;;;;33.70;22.30;;;;;;;7.67;100.00;95611.48;107790;1267;69011;-71
2022/11/17 09:30:20;;;;;;;;;;;;;;;7.74;100.00;95612.92;107766;1267;70245;-71
2022/11/17 09:32:50;;;;;;;35.10;24.30;;;;;;;7.78;100.00;95612.11;107727;1265;59731;-71
2022/11/17 09:35:19;;;;;;;32.60;22.80;;;;;;;7.78;100.00;95610.69;107874;1267;59735;-71
2022/11/17 09:37:47;;;;;;;36.70;26.50;;;;;;;7.81;100.00;95612.84;107778;1267;71833;-71
2022/11/17 09:40:18;;;;;;;34.40;23.30;;;;;;;7.82;100.00;95610.31;107756;1267;68176;-71
2022/11/17 09:42:47;;;;;;;34.90;23.60;;;;;;;7.81;100.00;95613.48;107737;1263;69627;-71
2022/11/17 09:45:30;;;;;;;37.20;27.00;;;;;;;7.81;100.00;95611.64;107809;1265;59781;-71
2022/11/17 09:48:12;;;;;;;43.20;30.70;;;;;;;7.85;100.00;95617.28;107764;1267;59691;-71
2022/11/17 09:51:03;;;;;;;47.70;32.60;;;;;;;7.82;100.00;95622.62;107730;1267;70282;-71
2022/11/17 09:53:44;;;;;;;36.30;25.60;;;;;;;7.86;100.00;95625.85;107794;1267;69161;-71
2022/11/17 09:56:13;;;;;;;44.90;31.10;;;;;;;7.91;100.00;95626.11;107719;1258;69790;-71
2022/11/17 09:58:52;;;;;;;35.70;25.20;;;;;;;7.94;100.00;95626.43;107837;1262;59765;-71
2022/11/17 10:01:22;;;;;;;34.60;24.90;;;;;;;7.99;100.00;95628.52;107772;1267;59668;-73
2022/11/17 10:03:50;;;;;;;37.90;28.40;;;;;;;8.09;100.00;95624.02;107853;1267;71218;-74
2022/11/17 10:06:22;;;;;;;40.80;27.70;;;;;;;8.22;100.00;95628.48;107909;1265;69121;-76
2022/11/17 10:08:53;;;;;;;37.50;27.70;;;;;;;8.49;100.00;95634.05;107899;1266;69217;-76
2022/11/17 10:11:31;;;;;;;33.40;25.40;;;;;;;8.64;100.00;95626.05;107748;1263;59729;-76
2022/11/17 10:14:16;;;;;;;35.10;26.70;;;;;;;8.81;100.00;95629.99;107779;1265;59781;-76
2022/11/17 10:16:53;;;;;;;32.20;24.30;;;;;;;9.06;100.00;95633.88;107844;1268;71238;-76
2022/11/17 10:19:25;;;;;;;28.20;23.10;;;;;;;9.19;100.00;95641.23;107823;1265;69157;-76
2022/11/17 10:22:20;;;;;;;26.60;21.10;;;;;;;9.26;100.00;95644.77;107745;1265;68283;-76
2022/11/17 10:24:56;;;;;;;25.50;20.80;;;;;;;9.36;100.00;95643.10;107756;1261;59738;-76
2022/11/17 10:27:27;;;;;;;31.00;23.30;;;;;;;9.27;100.00;95644.96;107736;1265;59778;-75
2022/11/17 10:29:55;;;;;;;29.30;22.80;;;;;;;8.98;100.00;95646.02;107721;1265;70595;-75
2022/11/17 10:32:29;;;;;;;30.40;23.50;;;;;;;8.87;100.00;95646.89;107720;1265;69144;-71
2022/11/17 10:35:18;;;;;;;30.30;23.30;;;;;;;8.63;100.00;95653.45;107777;1265;69879;-72
2022/11/17 10:38:01;;;;;;;30.80;21.60;;;;;;;8.49;100.00;95657.52;107747;1265;59801;-72
2022/11/17 10:40:50;;;;;;;29.00;22.40;;;;;;;8.42;100.00;95659.84;107857;1268;59703;-72
2022/11/17 10:43:23;;;;;;;32.40;25.00;;;;;;;8.42;100.00;95659.88;107661;1266;70615;-72
2022/11/17 10:45:54;;;;;;;34.60;24.00;;;;;;;8.26;100.00;95665.49;107847;1265;69684;-72
2022/11/17 10:48:29;;;;;;;34.80;25.90;;;;;;;8.23;100.00;95658.86;107747;1268;69913;-71
2022/11/17 10:51:09;;;;;;;31.30;22.80;;;;;;;8.22;100.00;95660.62;107715;1265;59724;-72
2022/11/17 10:53:40;;;;;;;;;;;;;;;8.13;100.00;95662.48;107685;1268;59677;-72
2022/11/17 10:56:18;;;;;;;32.40;23.50;;;;;;;8.14;100.00;95660.17;107669;1269;70895;-72
2022/11/17 10:59:13;;;;;;;36.10;26.00;;;;;;;8.10;100.00;95660.83;107623;1269;69028;-71
2022/11/17 11:01:44;;;;;;;36.50;24.10;;;;;;;8.12;100.00;95659.62;107705;1269;69287;-72
2022/11/17 11:04:33;;;;;;;36.60;24.90;;;;;;;8.16;100.00;95664.46;107797;1265;59753;-72
2022/11/17 11:07:18;;;;;;;35.30;24.00;;;;;;;8.17;100.00;95661.78;107797;1269;59690;-72
2022/11/17 11:10:05;;;;;;;39.00;27.40;;;;;;;8.18;100.00;95663.75;107804;1265;71851;-71
2022/11/17 11:12:37;;;;;;;38.30;26.50;;;;;;;8.21;100.00;95665.64;107856;1268;69197;-71
2022/11/17 11:15:33;;;;;;;35.00;25.40;;;;;;;8.30;100.00;95666.36;107704;1268;68601;-71
2022/11/17 11:18:20;;;;;;;32.10;22.70;;;;;;;8.34;100.00;95666.02;107794;1267;59716;-70
2022/11/17 11:21:17;;;;;;;32.30;22.60;;;;;;;8.42;100.00;95668.21;107697;1267;59743;-69
2022/11/17 11:23:54;;;;;;;29.80;21.50;;;;;;;8.47;100.00;95675.02;107685;1266;71328;-70
2022/11/17 11:26:55;;;;;;;30.70;20.60;;;;;;;8.51;100.00;95676.06;107635;1269;69165;-70
2022/11/17 11:29:57;;;;;;;31.50;21.60;;;;;;;8.51;100.00;95682.01;107678;1269;69983;-71
2022/11/17 11:32:40;;;;;;;30.50;21.80;;;;;;;8.54;100.00;95682.91;107658;1265;59720;-71
2022/11/17 11:35:27;;;;;;;26.80;19.40;;;;;;;8.53;100.00;95682.31;107745;1269;59725;-70
2022/11/17 11:38:14;;;;;;;26.30;19.40;;;;;;;8.51;100.00;95685.32;107744;1269;70872;-71
2022/11/17 11:41:04;;;;;;;24.50;18.80;;;;;;;8.55;100.00;95689.96;107665;1266;69780;-71
2022/11/17 11:43:47;;;;;;;27.50;19.90;;;;;;;8.58;100.00;95694.88;107672;1269;70143;-71
2022/11/17 11:46:31;;;;;;;25.40;17.90;;;;;;;8.65;100.00;95694.77;107742;1266;59726;-72
2022/11/17 11:49:15;;;;;;;25.80;17.30;;;;;;;8.72;100.00;95699.00;107707;1269;60096;-71
2022/11/17 11:51:47;;;;;;;21.30;16.00;;;;;;;8.81;100.00;95699.30;107770;1265;71212;-71
2022/11/17 11:54:41;;;;;;;18.30;14.40;;;;;;;8.92;100.00;95703.33;107937;1267;69703;-72
2022/11/17 11:57:24;;;;;;;18.90;14.10;;;;;;;9.00;100.00;95706.64;107672;1265;69348;-72
2022/11/17 12:00:00;;;;;;;17.10;13.90;;;;;;;9.01;100.00;95706.71;107686;1269;59719;-72
2022/11/17 12:03:00;;;;;;;15.30;11.80;;;;;;;9.03;100.00;95707.23;107856;1269;59698;-71
2022/11/17 12:05:44;;;;;;;15.80;12.00;;;;;;;9.08;100.00;95705.00;107886;1269;71387;-69
2022/11/17 12:08:53;;;;;;;14.50;11.10;;;;;;;9.09;99.60;95703.17;107853;1269;69120;-72